createdAt,value
2022-10-07T00:02:17.043Z,74.50
2022-10-07T00:04:46.369Z,88.38
2022-10-07T00:07:21.920Z,71.63
2022-10-07T00:09:49.135Z,67.68
2022-10-07T00:12:22.915Z,78.95
2022-10-07T00:14:50.081Z,69.90
2022-10-07T00:17:23.991Z,84.93
2022-10-07T00:19:51.233Z,76.55
2022-10-07T00:22:24.929Z,54.22
2022-10-07T00:24:52.084Z,59.75
2022-10-07T00:27:19.375Z,72.35
2022-10-07T00:29:52.981Z,68.53
2022-10-07T00:32:20.217Z,62.28
2022-10-07T00:34:47.367Z,89.75
2022-10-07T00:37:20.851Z,59.45
2022-10-07T00:39:48.108Z,77.65
2022-10-07T00:42:21.860Z,68.82
2022-10-07T00:44:48.961Z,69.03
2022-10-07T00:47:42.250Z,78.53
2022-10-07T00:50:11.114Z,71.32
2022-10-07T00:52:47.850Z,75.22
2022-10-07T00:55:17.662Z,61.47
2022-10-07T00:57:51.859Z,69.18
2022-10-07T01:00:21.810Z,62.25
2022-10-07T01:02:56.064Z,67.43
2022-10-07T01:05:23.264Z,66.18
2022-10-07T01:07:51.078Z,70.45
2022-10-07T01:10:26.862Z,72.50
2022-10-07T01:13:05.842Z,66.65
2022-10-07T01:15:42.892Z,68.63
2022-10-07T01:18:24.784Z,68.68
2022-10-07T01:21:13.994Z,63.70
2022-10-07T01:23:59.102Z,59.17
2022-10-07T01:26:32.958Z,52.08
2022-10-07T01:29:01.388Z,52.05
2022-10-07T01:31:44.931Z,64.53
2022-10-07T01:34:14.049Z,48.72
2022-10-07T01:36:48.872Z,65.28
2022-10-07T01:39:16.524Z,61.33
2022-10-07T01:44:17.038Z,68.68
2022-10-07T01:46:58.291Z,72.78
2022-10-07T01:49:25.741Z,76.28
2022-10-07T01:52:26.005Z,56.15
2022-10-07T01:55:02.383Z,64.38
2022-10-07T01:57:39.015Z,71.18
2022-10-07T02:00:10.091Z,61.28
2022-10-07T02:02:46.944Z,62.78
2022-10-07T02:05:37.312Z,49.35
2022-10-07T02:08:22.920Z,41.78
2022-10-07T02:10:56.216Z,60.22
2022-10-07T02:13:32.921Z,53.80
2022-10-07T02:16:19.016Z,45.42
2022-10-07T02:18:55.015Z,48.40
2022-10-07T02:21:27.566Z,51.70
2022-10-07T02:24:01.928Z,58.50
2022-10-07T02:26:29.905Z,69.68
2022-10-07T02:29:04.994Z,56.08
2022-10-07T02:31:33.348Z,69.28
2022-10-07T02:34:07.916Z,64.38
2022-10-07T02:36:36.526Z,55.10
2022-10-07T02:39:10.945Z,60.85
2022-10-07T02:41:47.790Z,60.13
2022-10-07T02:44:26.019Z,64.10
2022-10-07T02:49:44.905Z,51.90
2022-10-07T02:52:14.401Z,58.30
2022-10-07T02:54:50.973Z,51.42
2022-10-07T02:57:19.567Z,62.40
2022-10-07T02:59:48.219Z,57.72
2022-10-07T03:02:28.936Z,52.75
2022-10-07T03:04:57.750Z,64.25
2022-10-07T03:07:32.949Z,56.40
2022-10-07T03:10:00.289Z,61.13
2022-10-07T03:12:35.922Z,57.30
2022-10-07T03:15:03.245Z,59.33
2022-10-07T03:17:37.124Z,62.67
2022-10-07T03:20:04.371Z,52.17
2022-10-07T03:22:31.534Z,55.63
2022-10-07T03:25:04.931Z,52.08
2022-10-07T03:27:32.160Z,52.05
2022-10-07T03:30:06.210Z,54.63
2022-10-07T03:32:33.804Z,61.33
2022-10-07T03:37:36.952Z,49.03
2022-10-07T03:40:17.989Z,53.20
2022-10-07T03:42:45.224Z,51.67
2022-10-07T03:45:12.430Z,56.85
2022-10-07T03:47:46.391Z,56.90
2022-10-07T03:50:13.853Z,84.63
2022-10-07T03:52:47.874Z,58.97
2022-10-07T03:55:15.343Z,63.83
2022-10-07T03:57:59.697Z,61.00
2022-10-07T04:00:27.314Z,56.88
2022-10-07T04:02:54.526Z,55.45
2022-10-07T04:05:36.003Z,58.42
2022-10-07T04:08:04.845Z,47.00
2022-10-07T04:10:39.079Z,53.30
2022-10-07T04:13:06.241Z,38.03
2022-10-07T04:15:34.451Z,55.67
2022-10-07T04:18:07.964Z,47.67
2022-10-07T04:20:35.164Z,57.05
2022-10-07T04:23:09.008Z,51.72
2022-10-07T04:25:37.661Z,57.80
2022-10-07T04:28:18.997Z,51.15
2022-10-07T04:30:51.112Z,51.83
2022-10-07T04:33:29.016Z,57.35
2022-10-07T04:35:56.185Z,41.17
2022-10-07T04:38:30.043Z,57.40
2022-10-07T04:40:57.249Z,53.45
2022-10-07T04:43:24.552Z,51.15
2022-10-07T04:46:00.190Z,66.13
2022-10-07T04:48:34.194Z,49.55
2022-10-07T04:51:08.999Z,62.50
2022-10-07T04:53:36.546Z,58.22
2022-10-07T04:58:37.974Z,67.47
2022-10-07T05:01:09.151Z,66.47
2022-10-07T05:03:45.023Z,60.42
2022-10-07T05:06:12.251Z,57.92
2022-10-07T05:08:39.404Z,70.60
2022-10-07T05:11:13.087Z,57.05
2022-10-07T05:13:40.551Z,54.33
2022-10-07T05:16:16.490Z,61.25
2022-10-07T05:18:43.724Z,68.10
2022-10-07T05:21:11.177Z,48.33
2022-10-07T05:23:45.038Z,59.45
2022-10-07T05:26:14.255Z,62.75
2022-10-07T05:28:49.986Z,51.17
2022-10-07T05:31:17.392Z,64.45
2022-10-07T05:33:46.150Z,50.58
2022-10-07T05:36:20.067Z,40.85
2022-10-07T05:38:47.608Z,50.40
2022-10-07T05:43:49.950Z,65.70
2022-10-07T05:46:25.285Z,44.47
2022-10-07T05:49:06.033Z,59.00
2022-10-07T05:51:33.230Z,35.20
2022-10-07T05:54:07.004Z,57.13
2022-10-07T05:56:34.942Z,55.00
2022-10-07T05:59:09.177Z,38.35
2022-10-07T06:01:36.542Z,44.20
2022-10-07T06:04:04.136Z,46.10
2022-10-07T06:06:38.048Z,37.17
2022-10-07T06:09:23.873Z,39.65
2022-10-07T06:12:16.197Z,46.30
2022-10-07T06:14:43.417Z,56.13
2022-10-07T06:17:17.054Z,48.97
2022-10-07T06:19:47.101Z,57.42
2022-10-07T06:22:14.270Z,56.33
2022-10-07T06:24:47.961Z,55.42
2022-10-07T06:27:15.216Z,39.80
2022-10-07T06:29:48.989Z,45.65
2022-10-07T06:32:16.497Z,40.05
2022-10-07T06:34:45.060Z,55.08
2022-10-07T06:37:19.009Z,33.28
2022-10-07T06:39:46.489Z,43.58
2022-10-07T06:42:20.241Z,43.33
2022-10-07T06:44:47.575Z,36.20
2022-10-07T06:47:28.034Z,51.22
2022-10-07T06:49:55.240Z,39.38
2022-10-07T06:52:22.522Z,49.53
2022-10-07T06:54:55.985Z,44.83
2022-10-07T07:00:17.408Z,50.08
2022-10-07T07:02:44.836Z,52.97
2022-10-07T07:07:46.301Z,50.38
2022-10-07T07:10:14.879Z,44.20
2022-10-07T07:12:49.391Z,38.47
2022-10-07T07:15:17.215Z,41.80
2022-10-07T07:17:51.103Z,37.85
2022-10-07T07:20:18.314Z,40.85
2022-10-07T07:22:49.496Z,53.90
2022-10-07T07:25:23.079Z,35.50
2022-10-07T07:27:56.815Z,33.80
2022-10-07T07:30:32.088Z,34.22
2022-10-07T07:32:59.388Z,42.00
2022-10-07T07:35:28.273Z,44.17
2022-10-07T07:38:01.998Z,37.95
2022-10-07T07:40:29.350Z,38.03
2022-10-07T07:43:03.069Z,46.53
2022-10-07T07:45:33.012Z,36.72
2022-10-07T07:48:13.009Z,50.47
2022-10-07T07:50:40.847Z,45.92
2022-10-07T07:53:15.267Z,35.80
2022-10-07T07:55:52.286Z,46.17
2022-10-07T07:58:28.098Z,38.83
2022-10-07T08:03:51.335Z,38.15
2022-10-07T08:06:20.660Z,39.60
2022-10-07T08:08:48.316Z,37.05
2022-10-07T08:11:24.062Z,42.05
2022-10-07T08:13:51.624Z,43.72
2022-10-07T08:18:52.465Z,34.63
2022-10-07T08:21:21.461Z,45.05
2022-10-07T08:23:55.191Z,34.10
2022-10-07T08:26:22.780Z,34.08
2022-10-07T08:31:26.147Z,43.10
2022-10-07T08:33:53.720Z,35.60
2022-10-07T08:36:29.046Z,39.97
2022-10-07T08:38:56.395Z,39.35
2022-10-07T08:41:28.352Z,36.83
2022-10-07T08:44:03.353Z,32.58
2022-10-07T08:46:32.922Z,29.90
2022-10-07T08:49:10.300Z,39.55
2022-10-07T08:51:42.602Z,36.67
2022-10-07T08:54:20.268Z,38.88
2022-10-07T08:56:48.741Z,43.78
2022-10-07T08:59:18.846Z,39.13
2022-10-07T09:01:56.071Z,35.78
2022-10-07T09:04:42.318Z,49.47
2022-10-07T09:07:27.038Z,45.22
2022-10-07T09:09:56.275Z,34.58
2022-10-07T09:12:34.080Z,38.17
2022-10-07T09:15:03.581Z,28.10
2022-10-07T09:17:40.034Z,41.97
2022-10-07T09:20:13.925Z,33.00
2022-10-07T09:22:49.121Z,28.50
2022-10-07T09:25:19.472Z,38.38
2022-10-07T09:27:54.044Z,29.90
2022-10-07T09:30:22.877Z,34.40
2022-10-07T09:32:58.079Z,27.58
2022-10-07T09:35:27.567Z,34.05
2022-10-07T09:38:05.287Z,32.78
2022-10-07T09:40:32.619Z,36.97
2022-10-07T09:43:00.618Z,34.00
2022-10-07T09:45:38.032Z,33.28
2022-10-07T09:48:17.616Z,41.78
2022-10-07T09:50:52.151Z,40.08
2022-10-07T09:53:24.407Z,28.38
2022-10-07T09:55:59.049Z,30.92
2022-10-07T09:58:26.331Z,30.38
2022-10-07T10:01:02.270Z,29.08
2022-10-07T10:03:40.087Z,29.75
2022-10-07T10:06:15.198Z,38.13
2022-10-07T10:08:45.585Z,34.20
2022-10-07T10:11:25.090Z,26.98
2022-10-07T10:13:52.960Z,36.10
2022-10-07T10:16:33.065Z,32.47
2022-10-07T10:19:04.098Z,30.67
2022-10-07T10:21:42.099Z,28.92
2022-10-07T10:24:12.436Z,30.63
2022-10-07T10:26:52.372Z,35.80
2022-10-07T10:29:22.613Z,34.67
2022-10-07T10:32:02.230Z,35.30
2022-10-07T10:34:47.540Z,32.67
2022-10-07T10:37:29.219Z,31.05
2022-10-07T10:40:15.126Z,41.22
2022-10-07T10:43:04.208Z,36.15
2022-10-07T10:45:49.888Z,43.70
2022-10-07T10:48:36.194Z,27.63
2022-10-07T10:51:25.463Z,42.83
2022-10-07T10:54:05.339Z,36.45
2022-10-07T10:56:33.479Z,27.20
2022-10-07T10:59:03.947Z,31.25
2022-10-07T11:01:43.173Z,28.05
2022-10-07T11:04:17.046Z,35.58
2022-10-07T11:06:53.207Z,27.42
2022-10-07T11:09:39.383Z,29.70
2022-10-07T11:12:17.271Z,29.63
2022-10-07T11:14:50.702Z,31.15
2022-10-07T11:17:30.084Z,29.35
2022-10-07T11:20:04.522Z,35.65
2022-10-07T11:22:42.125Z,25.10
2022-10-07T11:25:25.595Z,18.45
2022-10-07T11:28:02.411Z,27.08
2022-10-07T11:30:35.977Z,26.30
2022-10-07T11:33:18.256Z,28.75
2022-10-07T11:35:51.201Z,30.63
2022-10-07T11:38:27.263Z,28.50
2022-10-07T11:41:00.819Z,27.00
2022-10-07T11:43:36.179Z,24.17
2022-10-07T11:46:23.613Z,25.50
2022-10-07T11:49:00.179Z,27.55
2022-10-07T11:51:35.759Z,25.17
2022-10-07T11:54:11.347Z,28.67
2022-10-07T11:56:44.764Z,35.28
2022-10-07T11:59:35.157Z,30.15
2022-10-07T12:02:03.013Z,28.95
2022-10-07T12:04:45.200Z,28.23
2022-10-07T12:07:38.024Z,31.15
2022-10-07T12:10:05.324Z,33.45
2022-10-07T12:12:51.046Z,27.98
2022-10-07T12:15:30.697Z,27.45
2022-10-07T12:18:14.028Z,22.10
2022-10-07T12:20:46.363Z,27.33
2022-10-07T12:23:29.023Z,24.88
2022-10-07T12:25:58.922Z,29.67
2022-10-07T12:28:54.011Z,15.45
2022-10-07T12:31:24.519Z,27.42
2022-10-07T12:34:16.033Z,25.13
2022-10-07T12:36:43.525Z,32.83
2022-10-07T12:39:18.063Z,26.05
2022-10-07T12:41:46.422Z,27.67
2022-10-07T12:44:40.093Z,30.98
2022-10-07T12:47:19.801Z,29.13
2022-10-07T12:49:56.035Z,28.42
2022-10-07T12:52:24.931Z,28.13
2022-10-07T12:55:14.060Z,23.95
2022-10-07T12:57:43.579Z,21.95
2022-10-07T13:00:31.055Z,21.27
2022-10-07T13:03:22.209Z,26.23
2022-10-07T13:05:59.134Z,27.98
2022-10-07T13:08:32.346Z,30.80
2022-10-07T13:11:25.187Z,25.35
2022-10-07T13:14:24.449Z,31.35
2022-10-07T13:17:22.130Z,28.25
2022-10-07T13:20:09.495Z,36.00
2022-10-07T13:22:43.487Z,29.92
2022-10-07T13:25:12.734Z,30.45
2022-10-07T13:27:48.239Z,30.52
2022-10-07T13:30:44.553Z,27.65
2022-10-07T13:33:24.167Z,32.75
2022-10-07T13:35:51.808Z,24.13
2022-10-07T13:41:00.119Z,20.88
2022-10-07T13:43:29.258Z,28.55
2022-10-07T13:46:04.310Z,26.45
2022-10-07T13:48:35.567Z,23.40
2022-10-07T13:51:10.147Z,19.63
2022-10-07T13:53:38.510Z,20.33
2022-10-07T13:56:30.159Z,21.90
2022-10-07T13:58:58.068Z,21.35
2022-10-07T14:01:34.401Z,26.23
2022-10-07T14:04:17.826Z,30.70
2022-10-07T14:06:51.265Z,24.55
2022-10-07T14:09:37.142Z,21.95
2022-10-07T14:12:14.351Z,28.00
2022-10-07T14:14:43.146Z,17.25
2022-10-07T14:17:35.298Z,25.00
2022-10-07T14:20:21.140Z,19.00
2022-10-07T14:23:00.156Z,18.90
2022-10-07T14:25:29.116Z,18.55
2022-10-07T14:28:12.360Z,24.70
2022-10-07T14:30:59.724Z,31.08
2022-10-07T14:34:11.379Z,29.25
2022-10-07T14:36:38.513Z,26.42
2022-10-07T14:39:31.161Z,27.65
2022-10-07T14:41:58.255Z,40.08
2022-10-07T14:44:25.963Z,41.90
2022-10-07T14:47:10.159Z,38.58
2022-10-07T14:49:37.328Z,41.55
2022-10-07T14:52:18.318Z,39.88
2022-10-07T14:54:45.502Z,36.47
2022-10-07T14:57:12.589Z,39.72
2022-10-07T14:59:46.163Z,40.05
2022-10-07T15:02:13.497Z,45.65
2022-10-07T15:04:54.542Z,39.63
2022-10-07T15:07:21.961Z,38.58
2022-10-07T15:09:49.076Z,35.97
2022-10-07T15:12:23.289Z,41.88
2022-10-07T15:14:50.595Z,38.65
2022-10-07T15:17:17.730Z,43.78
2022-10-07T15:19:51.188Z,36.03
2022-10-07T15:22:18.746Z,34.45
2022-10-07T15:27:19.903Z,36.80
2022-10-07T15:29:47.014Z,33.47
2022-10-07T15:32:21.367Z,44.33
2022-10-07T15:34:52.366Z,32.05
2022-10-07T15:37:19.465Z,48.33
2022-10-07T15:39:53.173Z,40.28
2022-10-07T15:42:23.858Z,44.67
2022-10-07T15:44:58.195Z,33.95
2022-10-07T15:47:27.843Z,36.65
2022-10-07T15:50:01.217Z,32.65
2022-10-07T15:52:28.468Z,35.47
2022-10-07T15:54:55.586Z,34.70
2022-10-07T15:57:31.319Z,34.58
2022-10-07T15:59:58.576Z,41.05
2022-10-07T16:02:32.483Z,34.70
2022-10-07T16:05:06.186Z,47.25
2022-10-07T16:07:40.330Z,45.53
2022-10-07T16:10:12.702Z,45.00
2022-10-07T16:12:47.713Z,40.70
2022-10-07T16:15:23.100Z,40.03
2022-10-07T16:17:58.309Z,43.25
2022-10-07T16:20:25.549Z,48.60
2022-10-07T16:22:52.639Z,45.40
2022-10-07T16:25:26.186Z,32.47
2022-10-07T16:28:11.974Z,34.83
2022-10-07T16:30:50.478Z,38.53
2022-10-07T16:33:19.381Z,45.63
2022-10-07T16:35:53.166Z,39.85
2022-10-07T16:38:20.768Z,41.17
2022-10-07T16:41:01.361Z,39.42
2022-10-07T16:43:29.561Z,33.53
2022-10-07T16:45:56.753Z,32.85
2022-10-07T16:48:31.314Z,49.78
2022-10-07T16:50:59.326Z,46.67
2022-10-07T16:53:27.090Z,36.50
2022-10-07T16:56:01.232Z,28.13
2022-10-07T16:58:29.341Z,31.95
2022-10-07T17:01:00.969Z,37.47
2022-10-07T17:03:34.336Z,37.38
2022-10-07T17:06:01.695Z,30.35
2022-10-07T17:08:42.776Z,44.40
2022-10-07T17:11:28.625Z,30.70
2022-10-07T17:14:07.350Z,42.67
2022-10-07T17:16:44.855Z,37.42
2022-10-07T17:19:26.245Z,33.33
2022-10-07T17:21:54.169Z,33.42
2022-10-07T17:24:29.240Z,35.22
2022-10-07T17:26:56.476Z,40.97
2022-10-07T17:29:26.929Z,33.78
2022-10-07T17:32:01.214Z,38.33
2022-10-07T17:34:28.480Z,44.70
2022-10-07T17:37:02.285Z,34.08
2022-10-07T17:39:31.145Z,37.05
2022-10-07T17:41:58.373Z,41.83
2022-10-07T17:44:32.241Z,35.85
2022-10-07T17:47:03.631Z,37.10
2022-10-07T17:49:31.199Z,36.95
2022-10-07T17:52:05.258Z,32.72
2022-10-07T17:54:32.423Z,47.25
2022-10-07T17:57:06.369Z,34.75
2022-10-07T17:59:33.934Z,38.50
2022-10-07T18:04:34.278Z,40.58
2022-10-07T18:07:08.256Z,39.55
2022-10-07T18:09:42.291Z,36.63
2022-10-07T18:12:28.428Z,38.42
2022-10-07T18:15:21.385Z,35.80
2022-10-07T18:17:52.261Z,37.25
2022-10-07T18:20:28.404Z,40.80
2022-10-07T18:22:56.750Z,37.05
2022-10-07T18:25:24.413Z,46.95
2022-10-07T18:27:59.424Z,37.38
2022-10-07T18:30:26.635Z,37.63
2022-10-07T18:32:53.717Z,37.28
2022-10-07T18:35:27.235Z,42.25
2022-10-07T18:37:54.435Z,37.13
2022-10-07T18:40:28.248Z,26.48
2022-10-07T18:42:55.415Z,30.63
2022-10-07T18:45:30.406Z,37.55
2022-10-07T18:47:57.704Z,36.70
2022-10-07T18:50:29.051Z,46.17
2022-10-07T18:53:07.248Z,32.55
2022-10-07T18:55:39.198Z,37.40
2022-10-07T18:58:13.360Z,32.53
2022-10-07T19:00:41.931Z,31.42
2022-10-07T19:03:23.504Z,40.60
2022-10-07T19:05:57.081Z,23.90
2022-10-07T19:08:31.339Z,31.73
2022-10-07T19:11:09.167Z,35.05
2022-10-07T19:13:55.656Z,26.80
2022-10-07T19:16:30.785Z,37.03
2022-10-07T19:19:08.431Z,28.80
2022-10-07T19:21:35.824Z,35.78
2022-10-07T19:24:03.762Z,34.85
2022-10-07T19:26:39.264Z,25.88
2022-10-07T19:29:16.256Z,43.28
2022-10-07T19:31:44.891Z,42.70
2022-10-07T19:34:20.183Z,36.22
2022-10-07T19:36:47.972Z,38.03
2022-10-07T19:39:26.232Z,38.38
2022-10-07T19:44:21.076Z,45.20
2022-10-07T19:46:57.298Z,34.33
2022-10-07T19:49:24.490Z,24.27
2022-10-07T19:51:59.394Z,14.30
2022-10-07T19:54:26.692Z,20.65
2022-10-07T19:56:54.061Z,16.67
2022-10-07T19:59:28.286Z,18.15
2022-10-07T20:02:00.156Z,15.50
2022-10-07T20:04:42.280Z,12.98
2022-10-07T20:07:09.549Z,9.63
2022-10-07T20:09:43.258Z,13.77
2022-10-07T20:12:10.589Z,19.90
2022-10-07T20:14:44.298Z,14.98
2022-10-07T20:17:12.024Z,8.02
2022-10-07T20:19:39.103Z,16.98
2022-10-07T20:22:13.279Z,13.27
2022-10-07T20:24:40.474Z,16.15
2022-10-07T20:27:14.515Z,17.58
2022-10-07T20:30:02.234Z,16.27
2022-10-07T20:32:40.421Z,8.48
2022-10-07T20:35:11.584Z,11.43
2022-10-07T20:37:38.879Z,14.13
2022-10-07T20:40:31.356Z,13.25
2022-10-07T20:43:00.565Z,7.57
2022-10-07T20:46:04.456Z,14.43
2022-10-07T20:48:42.253Z,6.28
2022-10-07T20:51:19.342Z,14.77
2022-10-07T20:53:49.961Z,18.63
2022-10-07T20:56:17.550Z,21.95
2022-10-07T21:01:21.805Z,13.50
2022-10-07T21:03:55.469Z,22.52
2022-10-07T21:06:29.197Z,10.13
2022-10-07T21:09:04.429Z,14.60
2022-10-07T21:11:38.210Z,20.60
2022-10-07T21:14:05.513Z,11.80
2022-10-07T21:16:41.293Z,16.98
2022-10-07T21:19:08.743Z,24.38
2022-10-07T21:21:36.002Z,21.42
2022-10-07T21:24:09.323Z,17.42
2022-10-07T21:26:36.811Z,16.30
2022-10-07T21:29:05.023Z,17.63
2022-10-07T21:31:38.345Z,9.23
2022-10-07T21:34:08.734Z,20.02
2022-10-07T21:36:43.501Z,16.15
2022-10-07T21:39:11.829Z,19.00
2022-10-07T21:41:45.503Z,16.08
2022-10-07T21:44:14.167Z,10.60
2022-10-07T21:46:53.527Z,8.02
2022-10-07T21:49:20.722Z,15.40
2022-10-07T21:51:48.015Z,11.15
2022-10-07T21:54:22.284Z,11.23
2022-10-07T21:56:50.080Z,14.77
2022-10-07T21:59:24.525Z,5.88
2022-10-07T22:01:51.836Z,10.63
2022-10-07T22:04:37.527Z,12.85
2022-10-07T22:07:23.738Z,13.20
2022-10-07T22:09:57.362Z,9.00
2022-10-07T22:12:24.633Z,14.30
2022-10-07T22:14:52.252Z,14.32
2022-10-07T22:19:53.487Z,18.50
2022-10-07T22:22:27.341Z,13.18
2022-10-07T22:24:54.532Z,21.35
2022-10-07T22:27:22.109Z,17.30
2022-10-07T22:32:22.609Z,23.98
2022-10-07T22:35:15.342Z,35.58
2022-10-07T22:37:42.598Z,21.65
2022-10-07T22:40:16.475Z,18.58
2022-10-07T22:42:47.000Z,32.30
2022-10-07T22:45:14.453Z,25.73
2022-10-07T22:47:48.336Z,27.75
2022-10-07T22:50:16.665Z,20.20
2022-10-07T22:52:50.452Z,29.50
2022-10-07T22:55:18.071Z,34.13
2022-10-07T23:00:19.332Z,34.38
2022-10-07T23:02:46.951Z,22.50
2022-10-07T23:05:29.364Z,23.10
2022-10-07T23:08:03.612Z,17.98
2022-10-07T23:10:37.466Z,20.63
2022-10-07T23:13:04.713Z,37.67
2022-10-07T23:15:32.106Z,22.05
2022-10-07T23:18:06.336Z,26.02
2022-10-07T23:20:33.550Z,34.83
2022-10-07T23:23:07.347Z,26.80
2022-10-07T23:25:34.536Z,27.38
2022-10-07T23:28:08.463Z,17.77
2022-10-07T23:30:44.355Z,15.90
2022-10-07T23:33:20.483Z,25.70
2022-10-07T23:35:47.725Z,30.00
2022-10-07T23:38:14.804Z,27.58
2022-10-07T23:40:48.373Z,22.40
2022-10-07T23:43:16.093Z,23.33
2022-10-07T23:45:52.378Z,22.90
2022-10-07T23:48:19.655Z,15.30
2022-10-07T23:50:50.724Z,14.90
2022-10-07T23:53:25.411Z,17.38
2022-10-07T23:55:55.766Z,13.65
2022-10-07T23:58:31.489Z,14.52
